EKYT/AAL METAR and TAF weather

Enter ICAO airport designator
Station Type Date Time Source
EKYT METAR 2018/10/19 15:20 UTC NOAA

EKYT 191520Z AUTO 29008KT 9999NDV BKN038/// 11/07 Q1023


Station Type Date Time Source
EKYT Decoded METAR 2018/10/19 15:20 UTC NOAA

Aalborg, Denmark (EKYT) 57-06N 009-51E 13M
Oct 19, 2018 - 11:20 AM EDT / 2018.10.19 1520 UTC
Wind: from the WNW (290 degrees) at 9 MPH (8 KT):0
Sky conditions: mostly cloudy
Temperature: 51 F (11 C)
Dew Point: 44 F (7 C)
Relative Humidity: 76%
Pressure (altimeter): 30.21 in. Hg (1023 hPa)
ob: EKYT 191520Z AUTO 29008KT 9999NDV BKN038/// 11/07 Q1023
cycle: 15

Station Type Date Time Source
EKYT TAF 2018/10/19 15:31 UTC NOAA

TAF EKYT 191405Z 1915/2012 28010KT 9999 BKN030
BECMG 1915/1918 21008KT
TEMPO 2000/2004 5000 -RADZ BKN012
BECMG 2002/2005 29012KT
TEMPO 2008/2012 30012G22KT


Example: see airport list